createdAt,value
2019-01-05T00:03:54.968Z,10.6
2019-01-05T00:09:00.577Z,13.2
2019-01-05T00:14:06.328Z,10.5
2019-01-05T00:19:11.678Z,10.7
2019-01-05T00:24:17.193Z,11.5
2019-01-05T00:29:23.247Z,11.5
2019-01-05T00:34:28.974Z,9.4
2019-01-05T00:39:34.558Z,9.2
2019-01-05T00:44:40.127Z,12.2
2019-01-05T00:49:44.421Z,10.8
2019-01-05T00:54:50.200Z,11.6
2019-01-05T00:59:56.064Z,10.9
2019-01-05T01:05:02.059Z,11.1
2019-01-05T01:10:07.496Z,9.8
2019-01-05T01:15:12.803Z,9.6
2019-01-05T01:20:18.687Z,9.8
2019-01-05T01:25:23.739Z,10.2
2019-01-05T01:30:29.453Z,7.6
2019-01-05T01:35:34.515Z,9.2
2019-01-05T01:40:40.061Z,8.1
2019-01-05T01:45:45.523Z,7.3
2019-01-05T01:50:51.019Z,10.5
2019-01-05T01:55:55.900Z,8.1
2019-01-05T02:01:02.037Z,7.9
2019-01-05T02:06:07.612Z,7.2
2019-01-05T02:11:12.769Z,7.9
2019-01-05T02:16:18.511Z,5.9
2019-01-05T02:21:24.249Z,7.1
2019-01-05T02:26:29.261Z,9.4
2019-01-05T02:31:34.445Z,6.5
2019-01-05T02:36:40.100Z,5.8
2019-01-05T02:41:45.357Z,6.8
2019-01-05T02:46:51.096Z,7
2019-01-05T02:51:54.937Z,6.5
2019-01-05T02:56:59.912Z,7.4
2019-01-05T03:02:05.144Z,7.8
2019-01-05T03:07:10.323Z,6.6
2019-01-05T03:12:15.416Z,7.3
2019-01-05T03:17:20.420Z,6.3
2019-01-05T03:22:26.137Z,6.6
2019-01-05T03:27:31.478Z,5.9
2019-01-05T03:32:36.786Z,7.4
2019-01-05T03:37:42.681Z,6.7
2019-01-05T03:42:48.805Z,6.3
2019-01-05T03:47:53.743Z,6.4
2019-01-05T03:52:59.900Z,6.5
2019-01-05T03:58:05.672Z,5.8
2019-01-05T04:03:10.739Z,6.5
2019-01-05T04:08:16.476Z,6.2
2019-01-05T04:13:20.441Z,6.3
2019-01-05T04:18:26.108Z,5.5
2019-01-05T04:23:31.421Z,4.8
2019-01-05T04:28:36.340Z,4.7
2019-01-05T04:33:43.196Z,5.7
2019-01-05T04:38:47.235Z,4.9
2019-01-05T04:43:52.168Z,6.4
2019-01-05T04:48:57.098Z,4.8
2019-01-05T04:54:01.681Z,4.9
2019-01-05T04:59:06.705Z,4.9
2019-01-05T05:04:11.379Z,4.8
2019-01-05T05:09:16.581Z,4.5
2019-01-05T05:14:20.894Z,3.9
2019-01-05T05:19:25.235Z,5.7
2019-01-05T05:24:29.960Z,4.7
2019-01-05T05:29:34.398Z,4.4
2019-01-05T05:34:39.334Z,4.1
2019-01-05T05:39:44.346Z,3.9
2019-01-05T05:44:49.265Z,4.1
2019-01-05T05:49:54.021Z,4.1
2019-01-05T05:54:59.145Z,3.5
2019-01-05T06:00:03.552Z,4
2019-01-05T06:05:08.941Z,3.8
2019-01-05T06:10:12.515Z,3.9
2019-01-05T06:15:17.242Z,5.5
2019-01-05T06:20:22.355Z,3.8
2019-01-05T06:25:27.697Z,4.5
2019-01-05T06:30:32.049Z,4.1
2019-01-05T06:35:36.836Z,5.2
2019-01-05T06:40:41.912Z,3
2019-01-05T06:45:47.305Z,5
2019-01-05T06:50:51.642Z,5.2
2019-01-05T06:55:56.208Z,5.3
2019-01-05T07:01:00.601Z,6.5
2019-01-05T07:06:05.023Z,10
2019-01-05T07:11:09.919Z,12.5
2019-01-05T07:16:14.726Z,7.3
2019-01-05T07:21:19.720Z,7
2019-01-05T07:26:24.089Z,7.1
2019-01-05T07:31:28.821Z,9.5
2019-01-05T07:36:32.344Z,9.8
2019-01-05T07:41:36.701Z,9.4
2019-01-05T07:46:44.638Z,9.4
2019-01-05T07:51:48.679Z,8.2
2019-01-05T07:56:54.453Z,9.6
2019-01-05T08:01:59.337Z,6.8
2019-01-05T08:07:05.200Z,7.2
2019-01-05T08:12:11.062Z,9
2019-01-05T08:17:15.680Z,8.6
2019-01-05T08:22:20.993Z,8.3
2019-01-05T08:27:27.004Z,6.8
2019-01-05T08:32:34.285Z,7.5
2019-01-05T08:37:38.603Z,13.4
2019-01-05T08:42:41.225Z,16.1
2019-01-05T08:47:46.351Z,17.1
2019-01-05T08:52:49.805Z,20.5
2019-01-05T08:57:54.616Z,16.6
2019-01-05T09:02:59.037Z,18.1
2019-01-05T09:08:03.887Z,10
2019-01-05T09:13:07.490Z,13.7
2019-01-05T09:18:11.725Z,11.6
2019-01-05T09:23:15.264Z,8.1
2019-01-05T09:28:19.041Z,16.7
2019-01-05T09:33:23.892Z,16.5
2019-01-05T09:38:28.199Z,14.3
2019-01-05T09:43:31.781Z,16.4
2019-01-05T09:48:35.370Z,12
2019-01-05T09:53:39.112Z,18.5
2019-01-05T09:58:42.573Z,19.8
2019-01-05T10:03:46.651Z,22
2019-01-05T10:08:52.431Z,20.3
2019-01-05T10:13:57.767Z,15.5
2019-01-05T10:19:03.508Z,14.4
2019-01-05T10:24:09.088Z,17.5
2019-01-05T10:29:14.268Z,14.3
2019-01-05T10:34:19.353Z,15
2019-01-05T10:39:25.108Z,14.1
2019-01-05T10:44:30.700Z,12.4
2019-01-05T10:49:36.356Z,9.7
2019-01-05T10:54:41.962Z,18.1
2019-01-05T10:59:48.231Z,15.2
2019-01-05T11:04:54.123Z,19.7
2019-01-05T11:09:58.545Z,17.4
2019-01-05T11:15:03.602Z,21.9
2019-01-05T11:20:09.246Z,18.2
2019-01-05T11:25:14.838Z,14.9
2019-01-05T11:30:20.880Z,13.5
2019-01-05T11:35:26.469Z,17.2
2019-01-05T11:40:31.740Z,14.8
2019-01-05T11:45:37.468Z,19.2
2019-01-05T11:50:43.239Z,10.6
2019-01-05T11:55:49.111Z,10.4
2019-01-05T12:00:55.122Z,14
2019-01-05T12:06:01.156Z,9.4
2019-01-05T12:11:06.212Z,10.5
2019-01-05T12:16:12.282Z,8.2
2019-01-05T12:21:17.753Z,9.3
2019-01-05T12:26:22.920Z,8.4
2019-01-05T12:31:30.021Z,9.2
2019-01-05T12:36:35.185Z,8.8
2019-01-05T12:41:40.956Z,8.8
2019-01-05T12:46:47.355Z,6.9
2019-01-05T12:51:53.388Z,6.8
2019-01-05T12:56:59.050Z,8.1
2019-01-05T13:02:04.562Z,11.7
2019-01-05T13:07:10.296Z,9.3
2019-01-05T13:12:14.116Z,11.2
2019-01-05T13:17:20.112Z,8.6
2019-01-05T13:22:25.626Z,5.1
2019-01-05T13:27:31.777Z,7.4
2019-01-05T13:32:38.213Z,7.1
2019-01-05T13:37:43.761Z,5.3
2019-01-05T13:42:45.718Z,6.2
2019-01-05T13:47:49.115Z,7.4
2019-01-05T13:52:54.674Z,6.7
2019-01-05T13:57:59.533Z,4.5
2019-01-05T14:03:05.443Z,7.9
2019-01-05T14:08:10.844Z,10.3
2019-01-05T14:39:29.275Z,22.8
2019-01-05T14:44:25.522Z,15
2019-01-05T14:49:30.481Z,15.1
2019-01-05T15:42:58.095Z,21.6
2019-01-05T15:47:54.696Z,12.6
2019-01-05T15:53:00.227Z,11.7
2019-01-05T15:58:06.081Z,16.3
2019-01-05T16:03:11.963Z,15.9
2019-01-05T16:08:17.173Z,16
2019-01-05T16:13:22.193Z,17.4
2019-01-05T16:18:28.266Z,20.2
2019-01-05T16:23:34.042Z,12.8
2019-01-05T16:28:35.265Z,11.6
2019-01-05T16:33:40.339Z,17.3
2019-01-05T16:38:46.766Z,25.5
2019-01-05T16:43:52.234Z,16.3
2019-01-05T16:48:57.586Z,17.7
2019-01-05T16:54:03.058Z,19.2
2019-01-05T16:59:08.521Z,18.5
2019-01-05T17:04:14.585Z,14.5
2019-01-05T17:09:20.854Z,12.4
2019-01-05T17:14:25.038Z,10.7
2019-01-05T17:19:36.411Z,17.4
2019-01-05T17:24:31.841Z,14.7
2019-01-05T17:29:37.131Z,17.3
2019-01-05T17:34:42.356Z,15.4
2019-01-05T17:39:47.997Z,21.1
2019-01-05T17:44:53.245Z,78.2
2019-01-05T17:50:00.213Z,76.4
2019-01-05T17:55:05.835Z,78.9
2019-01-05T18:00:11.487Z,68.4
2019-01-05T18:05:17.425Z,60.1
2019-01-05T18:10:22.907Z,57.2
2019-01-05T18:15:28.390Z,53.9
2019-01-05T18:20:34.048Z,55.8
2019-01-05T18:25:39.565Z,47.9
2019-01-05T18:30:44.045Z,45.4
2019-01-05T18:35:49.157Z,37.3
2019-01-05T18:40:54.777Z,34.4
2019-01-05T18:45:59.973Z,37.5
2019-01-05T18:51:05.212Z,44.2
2019-01-05T18:56:10.492Z,46.6
2019-01-05T19:01:14.670Z,61.3
2019-01-05T19:06:19.848Z,16.4
2019-01-05T19:11:25.837Z,14.3
2019-01-05T19:16:30.311Z,12.1
2019-01-05T19:21:35.497Z,13
2019-01-05T19:26:41.417Z,12.3
2019-01-05T19:31:46.686Z,13.6
2019-01-05T19:36:52.705Z,16.8
2019-01-05T19:41:58.642Z,17.4
2019-01-05T19:47:04.411Z,10.4
2019-01-05T19:52:09.523Z,11.5
2019-01-05T19:57:15.019Z,11.4
2019-01-05T20:02:20.626Z,12.2
2019-01-05T20:07:25.774Z,14
2019-01-05T20:12:30.966Z,14.5
2019-01-05T20:17:35.105Z,12.6
2019-01-05T20:22:39.820Z,11.3
2019-01-05T20:27:44.788Z,12.9
2019-01-05T20:32:50.548Z,11.7
2019-01-05T20:37:55.693Z,11.8
2019-01-05T20:43:02.664Z,11.1
2019-01-05T20:48:07.992Z,11.3
2019-01-05T20:53:13.945Z,13.5
2019-01-05T20:58:20.064Z,11.5
2019-01-05T21:03:25.221Z,12.6
2019-01-05T21:08:29.265Z,10.5
2019-01-05T21:13:35.551Z,12.9
2019-01-05T21:18:41.147Z,12.7
2019-01-05T21:23:46.641Z,15.2
2019-01-05T21:28:52.158Z,11
2019-01-05T21:33:57.924Z,10.3
2019-01-05T21:39:03.022Z,9
2019-01-05T21:44:09.049Z,10.3
2019-01-05T21:49:14.418Z,7.8
2019-01-05T21:54:18.228Z,8.5
2019-01-05T21:59:23.700Z,8.2
2019-01-05T22:04:28.931Z,8.7
2019-01-05T22:09:33.921Z,10.6
2019-01-05T22:14:40.012Z,10.2
2019-01-05T22:19:45.579Z,10
2019-01-05T22:24:51.293Z,10.1
2019-01-05T22:29:56.354Z,7.8
2019-01-05T22:35:01.815Z,10.9
2019-01-05T22:40:06.831Z,6.4
2019-01-05T22:45:13.113Z,6.7
2019-01-05T22:50:18.638Z,6.8
2019-01-05T22:55:24.311Z,6.6
2019-01-05T23:00:29.691Z,8.5
2019-01-05T23:05:35.456Z,10.2
2019-01-05T23:10:40.867Z,6.2
2019-01-05T23:15:46.743Z,6.1
2019-01-05T23:20:52.373Z,6.5
2019-01-05T23:25:57.105Z,6.3
2019-01-05T23:31:02.756Z,5.5
2019-01-05T23:36:08.248Z,6.3
2019-01-05T23:41:13.735Z,5.6
2019-01-05T23:46:19.633Z,7.7
2019-01-05T23:51:24.904Z,7.2
2019-01-05T23:56:29.847Z,5.8
